KG6QPT Weather Reports


Display with metric or nautical units.
time (UTC)temp
F
wind
direction
speed
MPH
gust
MPH
rain 1hr
in
rain 24hr
in
rain mn
in
humidity
%
barometer
mb
20190318175418 61 153 1.0 4.0 0.00 0.00 0.00
20190318172425 55 149 0.0 2.0 0.00 0.00 0.00
20190318171426 54 169 2.0 3.0 0.00 0.00 0.00
20190318165431 47 169 3.0 0.0 0.00 0.00 0.00
20190318164432 47 41 0.0 0.0 0.00 0.00 0.00
20190318163433 44 41 1.0 0.0 0.00 0.00 0.00
20190318153448 31 11 0.0 0.0 0.00 0.00 0.00
20190318151451 29 11 0.0 0.0 0.00 0.00 0.00
20190318145455 28 11 0.0 0.0 0.00 0.00 0.00
20190318142500 28 11 0.0 0.0 0.00 0.00 0.00
20190318141502 29 11 0.0 0.0 0.00 0.00 0.00
20190318140505 27 11 0.0 0.0 0.00 0.00 0.00
20190318135505 28 11 0.0 0.0 0.00 0.00 0.00
20190318133507 29 11 0.0 0.0 0.00 0.00 0.00
20190318125516 29 11 0.0 0.0 0.00 0.00 0.00
20190318123520 29 11 0.0 0.0 0.00 0.00 0.00
20190318115528 29 11 0.0 0.0 0.00 0.00 0.00
20190318113533 29 11 0.0 0.0 0.00 0.00 0.00
20190318112535 29 11 0.0 0.0 0.00 0.00 0.00
20190318111537 29 11 0.0 0.0 0.00 0.00 0.00
20190318103546 30 39 0.0 0.0 0.00 0.00 0.00
20190318095555 31 25 0.0 0.0 0.00 0.00 0.00
20190318084609 31 44 0.0 0.0 0.00 0.00 0.00
20190318083611 31 44 0.0 0.0 0.00 0.00 0.00
20190318082613 31 44 0.0 0.0 0.00 0.00 0.00
20190318081616 31 44 0.0 0.0 0.00 0.00 0.00
20190318080618 31 44 0.0 0.0 0.00 0.00 0.00
20190318073624 32 44 0.0 0.0 0.00 0.00 0.00
20190318072626 32 44 0.0 0.0 0.00 0.00 0.00
20190318065633 32 44 0.0 0.0 0.00 0.00 0.00
20190318060644 34 44 0.0 0.0 0.00 0.00 0.00
20190318054648 34 44 0.0 0.0 0.00 0.00 0.00
20190318051654 35 44 0.0 0.0 0.00 0.00 0.00
20190318050656 35 44 0.0 0.0 0.00 0.00 0.00
20190318044702 35 44 0.0 0.0 0.00 0.00 0.00
20190318043703 36 44 0.0 0.0 0.00 0.00 0.00
20190318034714 37 44 0.0 0.0 0.00 0.00 0.00
20190318033716 38 44 0.0 0.0 0.00 0.00 0.00
20190318032715 38 44 0.0 0.0 0.00 0.00 0.00
20190318024722 40 44 0.0 0.0 0.00 0.00 0.00
20190318015729 44 51 1.0 2.0 0.00 0.00 0.00
20190318011737 47 105 0.0 0.0 0.00 0.00 0.00
20190318000740 52 263 0.0 1.0 0.00 0.00 0.00
20190317235742 54 201 3.0 2.0 0.00 0.00 0.00
20190317234745 53 332 0.0 0.0 0.00 0.00 0.00
20190317231751 55 153 0.0 5.0 0.00 0.00 0.00
20190317230753 55 174 2.0 2.0 0.00 0.00 0.00
20190317225753 56 115 0.0 0.0 0.00 0.00 0.00
20190317224755 56 115 0.0 0.0 0.00 0.00 0.00
20190317222759 56 31 3.0 5.0 0.00 0.00 0.00
20190317221759 57 349 0.0 0.0 0.00 0.00 0.00
20190317220801 58 257 0.0 0.0 0.00 0.00 0.00
20190317213807 59 203 0.0 0.0 0.00 0.00 0.00
20190317212809 59 210 2.0 0.0 0.00 0.00 0.00
20190317211811 61 30 1.0 3.0 0.00 0.00 0.00
20190317204817 60 235 4.0 1.0 0.00 0.00 0.00
20190317184840 65 249 1.0 1.0 0.00 0.00 0.00
20190317175851 60 129 3.0 3.0 0.00 0.00 0.00
20190317174853 60 51 0.0 0.0 0.00 0.00 0.00
20190317164906 46 51 0.0 0.0 0.00 0.00 0.00
20190317163908 44 51 0.0 0.0 0.00 0.00 0.00
20190317155916 33 51 0.0 0.0 0.00 0.00 0.00
20190317153918 29 21 0.0 0.0 0.00 0.00 0.00
20190317151922 28 21 0.0 0.0 0.00 0.00 0.00
20190317150924 27 21 0.0 0.0 0.00 0.00 0.00
20190317145926 28 21 0.0 0.0 0.00 0.00 0.00
20190317141934 27 21 0.0 0.0 0.00 0.00 0.00
20190317140936 27 21 0.0 0.0 0.00 0.00 0.00
20190317135939 27 21 0.0 0.0 0.00 0.00 0.00
20190317134942 27 21 0.0 0.0 0.00 0.00 0.00
20190317133943 27 21 0.0 0.0 0.00 0.00 0.00
20190317132945 28 21 0.0 0.0 0.00 0.00 0.00
20190317131948 27 21 0.0 0.0 0.00 0.00 0.00
20190317130949 28 21 0.0 0.0 0.00 0.00 0.00
20190317124953 28 21 0.0 0.0 0.00 0.00 0.00
20190317123955 28 21 0.0 0.0 0.00 0.00 0.00
20190317122956 28 21 0.0 0.0 0.00 0.00 0.00
20190317121958 29 21 0.0 0.0 0.00 0.00 0.00
20190317115003 29 21 0.0 0.0 0.00 0.00 0.00
20190317114005 29 21 0.0 0.0 0.00 0.00 0.00
20190317091036 30 21 0.0 0.0 0.00 0.00 0.00
20190317085040 30 21 0.0 0.0 0.00 0.00 0.00
20190317084040 30 21 0.0 0.0 0.00 0.00 0.00
20190317083042 30 21 0.0 0.0 0.00 0.00 0.00
20190317082043 30 21 0.0 0.0 0.00 0.00 0.00
20190317081045 30 30 1.0 0.0 0.00 0.00 0.00
20190317080047 30 314 0.0 0.0 0.00 0.00 0.00
20190317075049 31 314 0.0 0.0 0.00 0.00 0.00
20190317074051 31 314 0.0 0.0 0.00 0.00 0.00
20190317073053 32 314 0.0 0.0 0.00 0.00 0.00
20190317072055 31 314 0.0 0.0 0.00 0.00 0.00
20190317071056 32 314 0.0 0.0 0.00 0.00 0.00
20190317061108 33 314 0.0 0.0 0.00 0.00 0.00
20190317055113 34 314 0.0 0.0 0.00 0.00 0.00
20190317054114 34 314 0.0 0.0 0.00 0.00 0.00
20190317053116 34 314 0.0 0.0 0.00 0.00 0.00
20190317052116 34 314 0.0 0.0 0.00 0.00 0.00
20190317051129 35 314 0.0 0.0 0.00 0.00 0.00
20190317050117 35 314 0.0 0.0 0.00 0.00 0.00
20190317043117 36 314 0.0 0.0 0.00 0.00 0.00
20190317041117 36 314 0.0 0.0 0.00 0.00 0.00
20190317034115 38 314 0.0 0.0 0.00 0.00 0.00
20190317032118 38 314 0.0 0.0 0.00 0.00 0.00
20190317031120 39 314 0.0 0.0 0.00 0.00 0.00
20190317011143 48 314 0.0 0.0 0.00 0.00 0.00
20190317004150 49 104 1.0 0.0 0.00 0.00 0.00
20190317002152 51 4 0.0 0.0 0.00 0.00 0.00
20190317001152 52 148 0.0 0.0 0.00 0.00 0.00
20190317000154 52 132 0.0 0.0 0.00 0.00 0.00
20190316235155 51 59 0.0 0.0 0.00 0.00 0.00
20190316231203 54 298 3.0 1.0 0.00 0.00 0.00
20190316230204 55 321 2.0 2.0 0.00 0.00 0.00
20190316223211 56 205 0.0 0.0 0.00 0.00 0.00
20190316215215 58 131 1.0 0.0 0.00 0.00 0.00
20190316212219 60 269 1.0 1.0 0.00 0.00 0.00
20190316211221 62 294 3.0 3.0 0.00 0.00 0.00
20190316210222 61 226 0.0 0.0 0.00 0.00 0.00
20190316203227 60 256 3.0 2.0 0.00 0.00 0.00
20190316202229 60 238 2.0 0.0 0.00 0.00 0.00
20190316200233 62 217 2.0 2.0 0.00 0.00 0.00
20190316195235 62 214 0.0 0.0 0.00 0.00 0.00
20190316194237 61 229 2.0 1.0 0.00 0.00 0.00
20190316192240 61 249 0.0 1.0 0.00 0.00 0.00
20190316190244 61 290 2.0 1.0 0.00 0.00 0.00
20190316143340 24 132 0.0 0.0 0.00 0.00 0.00
20190316142344 24 132 0.0 0.0 0.00 0.00 0.00
20190316141345 24 132 0.0 0.0 0.00 0.00 0.00
20190316132357 25 132 0.0 0.0 0.00 0.00 0.00
20190316131400 25 132 0.0 0.0 0.00 0.00 0.00
20190316125405 25 132 0.0 0.0 0.00 0.00 0.00
20190316124407 25 132 0.0 0.0 0.00 0.00 0.00
20190316123409 25 132 0.0 0.0 0.00 0.00 0.00
20190316122412 25 132 0.0 0.0 0.00 0.00 0.00
20190316111427 26 132 0.0 0.0 0.00 0.00 0.00
20190316104433 27 132 0.0 0.0 0.00 0.00 0.00
20190316103433 27 132 0.0 0.0 0.00 0.00 0.00
20190316100438 27 132 0.0 0.0 0.00 0.00 0.00
20190316095440 27 132 0.0 0.0 0.00 0.00 0.00
20190316094443 27 132 0.0 0.0 0.00 0.00 0.00
20190316093445 27 132 0.0 0.0 0.00 0.00 0.00
20190316092447 27 132 0.0 0.0 0.00 0.00 0.00
20190316085454 28 132 0.0 0.0 0.00 0.00 0.00
20190316084456 28 132 0.0 0.0 0.00 0.00 0.00
20190316083459 28 132 0.0 0.0 0.00 0.00 0.00
20190316080506 29 132 0.0 0.0 0.00 0.00 0.00
20190316065523 29 132 0.0 0.0 0.00 0.00 0.00
20190316064523 30 132 0.0 0.0 0.00 0.00 0.00
20190316063527 30 132 0.0 0.0 0.00 0.00 0.00
20190316062529 30 132 0.0 0.0 0.00 0.00 0.00
20190316061530 30 132 0.0 0.0 0.00 0.00 0.00
20190316060532 30 132 0.0 0.0 0.00 0.00 0.00
20190316054537 31 132 0.0 0.0 0.00 0.00 0.00
20190316053540 31 132 0.0 0.0 0.00 0.00 0.00
20190316052542 31 132 0.0 0.0 0.00 0.00 0.00
20190316051544 32 132 0.0 0.0 0.00 0.00 0.00
20190316042557 34 132 0.0 0.0 0.00 0.00 0.00
20190316041559 34 132 0.0 0.0 0.00 0.00 0.00
20190316035605 35 132 0.0 0.0 0.00 0.00 0.00
20190316034606 35 132 0.0 0.0 0.00 0.00 0.00
20190316033608 35 132 0.0 0.0 0.00 0.00 0.00
20190316030615 37 132 0.0 0.0 0.00 0.00 0.00
20190316022623 39 132 0.0 0.0 0.00 0.00 0.00
20190316021626 39 132 0.0 0.0 0.00 0.00 0.00
20190316015630 41 132 0.0 0.0 0.00 0.00 0.00
20190316010642 45 132 0.0 0.0 0.00 0.00 0.00
20190316004646 46 132 0.0 0.0 0.00 0.00 0.00
20190316001653 48 266 0.0 0.0 0.00 0.00 0.00
20190315234658 49 297 0.0 0.0 0.00 0.00 0.00
20190315233701 49 217 3.0 1.0 0.00 0.00 0.00
20190315231705 50 273 1.0 0.0 0.00 0.00 0.00
20190315225709 50 44 2.0 0.0 0.00 0.00 0.00
20190315223711 51 243 3.0 2.0 0.00 0.00 0.00
20190315214722 53 158 1.0 5.0 0.00 0.00 0.00
20190315213723 53 149 4.0 2.0 0.00 0.00 0.00
20190315210728 54 329 1.0 2.0 0.00 0.00 0.00
20190315205730 54 35 0.0 0.0 0.00 0.00 0.00
20190315195744 55 191 3.0 3.0 0.00 0.00 0.00
20190315194746 56 224 2.0 3.0 0.00 0.00 0.00
20190315192751 58 304 0.0 3.0 0.00 0.00 0.00
20190315190755 58 276 0.0 3.0 0.00 0.00 0.00
20190315184759 56 329 2.0 1.0 0.00 0.00 0.00
20190315183801 56 160 4.0 7.0 0.00 0.00 0.00
20190315182803 56 169 2.0 4.0 0.00 0.00 0.00
20190315181805 54 58 1.0 1.0 0.00 0.00 0.00
20190315160054 29 17 0.0 0.0 0.00 0.00 0.00
20190315155057 26 17 0.0 0.0 0.00 0.00 0.00
20190315153102 25 17 0.0 0.0 0.00 0.00 0.00
20190315152104 24 17 0.0 0.0 0.00 0.00 0.00
20190315151106 23 17 0.0 0.0 0.00 0.00 0.00
20190315150108 23 17 0.0 0.0 0.00 0.00 0.00
20190315145111 23 17 0.0 0.0 0.00 0.00 0.00
20190315144115 23 17 0.0 0.0 0.00 0.00 0.00
20190315141117 23 17 0.0 0.0 0.00 0.00 0.00
20190315140120 23 17 0.0 0.0 0.00 0.00 0.00
20190315134124 24 17 0.0 0.0 0.00 0.00 0.00
20190315133127 24 17 0.0 0.0 0.00 0.00 0.00
20190315132129 24 17 0.0 0.0 0.00 0.00 0.00
20190315131132 24 17 0.0 0.0 0.00 0.00 0.00
20190315130134 24 17 0.0 0.0 0.00 0.00 0.00
20190315123141 25 17 0.0 0.0 0.00 0.00 0.00
20190315122144 24 17 0.0 0.0 0.00 0.00 0.00
20190315121146 24 17 0.0 0.0 0.00 0.00 0.00
20190315120148 24 17 0.0 0.0 0.00 0.00 0.00
20190315115151 25 17 0.0 0.0 0.00 0.00 0.00
20190315114153 25 17 0.0 0.0 0.00 0.00 0.00
20190315111200 26 17 0.0 0.0 0.00 0.00 0.00
20190315105205 26 17 0.0 0.0 0.00 0.00 0.00
20190315104207 25 17 0.0 0.0 0.00 0.00 0.00
20190315103210 25 17 0.0 0.0 0.00 0.00 0.00
20190315102212 26 17 0.0 0.0 0.00 0.00 0.00
20190315101214 27 17 0.0 0.0 0.00 0.00 0.00
20190315100217 26 17 0.0 0.0 0.00 0.00 0.00
20190315095219 27 17 0.0 0.0 0.00 0.00 0.00
20190315094221 27 17 0.0 0.0 0.00 0.00 0.00
20190315093224 27 17 0.0 0.0 0.00 0.00 0.00
20190315092226 27 17 0.0 0.0 0.00 0.00 0.00
20190315091225 27 17 0.0 0.0 0.00 0.00 0.00
20190315090228 27 17 0.0 0.0 0.00 0.00 0.00
20190315084232 28 17 0.0 0.0 0.00 0.00 0.00
20190315083233 28 17 0.0 0.0 0.00 0.00 0.00
20190315082236 27 17 0.0 0.0 0.00 0.00 0.00
20190315081238 28 17 0.0 0.0 0.00 0.00 0.00
20190315080240 28 17 0.0 0.0 0.00 0.00 0.00
20190315075242 28 17 0.0 0.0 0.00 0.00 0.00
20190315073247 28 17 0.0 0.0 0.00 0.00 0.00
20190315064254 29 340 0.0 0.0 0.00 0.00 0.00
20190315063256 29 340 0.0 0.0 0.00 0.00 0.00
20190315062258 29 340 0.0 0.0 0.00 0.00 0.00
20190315061300 30 340 0.0 0.0 0.00 0.00 0.00
20190315055304 30 340 0.0 0.0 0.00 0.00 0.00
20190315054306 30 340 0.0 0.0 0.00 0.00 0.00
20190315053309 30 340 0.0 0.0 0.00 0.00 0.00
20190315052311 30 340 0.0 0.0 0.00 0.00 0.00
20190315051313 31 340 0.0 0.0 0.00 0.00 0.00
20190315045317 31 340 0.0 0.0 0.00 0.00 0.00
20190315044318 31 340 0.0 0.0 0.00 0.00 0.00
20190315043320 31 340 0.0 0.0 0.00 0.00 0.00
20190315042322 32 340 0.0 0.0 0.00 0.00 0.00
20190315041324 33 340 0.0 0.0 0.00 0.00 0.00
20190315040326 33 340 0.0 0.0 0.00 0.00 0.00
20190315033332 35 340 0.0 0.0 0.00 0.00 0.00
20190315030337 35 340 0.0 0.0 0.00 0.00 0.00
20190315024338 37 340 0.0 0.0 0.00 0.00 0.00
20190315022343 37 340 0.0 0.0 0.00 0.00 0.00
20190315020347 39 340 0.0 0.0 0.00 0.00 0.00
20190315015349 40 340 0.0 0.0 0.00 0.00 0.00
20190315014352 40 340 0.0 0.0 0.00 0.00 0.00
20190315010402 42 339 0.0 0.0 0.00 0.00 0.00
20190315003406 44 323 4.0 1.0 0.00 0.00 0.00
20190315002408 45 347 1.0 0.0 0.00 0.00 0.00
20190315000413 46 357 0.0 0.0 0.00 0.00 0.00
20190314235415 46 342 1.0 1.0 0.00 0.00 0.00
20190314234415 45 285 4.0 0.0 0.00 0.00 0.00
20190314233417 46 23 4.0 5.0 0.00 0.00 0.00
20190314232420 47 176 0.0 0.0 0.00 0.00 0.00
20190314231421 48 155 0.0 0.0 0.00 0.00 0.00
20190314230423 48 194 0.0 0.0 0.00 0.00 0.00
20190314224428 49 17 0.0 0.0 0.00 0.00 0.00
20190314223430 49 315 1.0 1.0 0.00 0.00 0.00
20190314221432 50 226 0.0 0.0 0.00 0.00 0.00
20190314220434 49 255 1.0 0.0 0.00 0.00 0.00
20190314215438 50 290 2.0 1.0 0.00 0.00 0.00
20190314214440 51 79 0.0 0.0 0.00 0.00 0.00
20190314212443 53 273 1.0 2.0 0.00 0.00 0.00
20190314211445 53 330 2.0 3.0 0.00 0.00 0.00
20190314210445 52 300 1.0 0.0 0.00 0.00 0.00
20190314205448 52 48 2.0 5.0 0.00 0.00 0.00
20190314204449 52 260 1.0 1.0 0.00 0.00 0.00
20190314200457 54 52 3.0 2.0 0.00 0.00 0.00
20190314193505 53 169 0.0 0.0 0.00 0.00 0.00
20190314184512 54 167 4.0 6.0 0.00 0.00 0.00
20190314183514 53 176 3.0 4.0 0.00 0.00 0.00
20190314181519 51 218 3.0 1.0 0.00 0.00 0.00
20190314172527 47 153 3.0 3.0 0.00 0.00 0.00
20190314170532 41 42 0.0 0.0 0.00 0.00 0.00
20190314162537 31 42 0.0 0.0 0.00 0.00 0.00
20190314155544 24 42 0.0 0.0 0.00 0.00 0.00
20190314152546 19 42 0.0 0.0 0.00 0.00 0.00
20190314151550 19 42 0.0 0.0 0.00 0.00 0.00
20190314145553 19 42 0.0 0.0 0.00 0.00 0.00
20190314144556 18 42 0.0 0.0 0.00 0.00 0.00
20190314141602 18 42 0.0 0.0 0.00 0.00 0.00
20190314134606 19 42 0.0 0.0 0.00 0.00 0.00
20190314133607 19 42 0.0 0.0 0.00 0.00 0.00
20190314130607 19 42 0.0 0.0 0.00 0.00 0.00
20190314115619 21 42 0.0 0.0 0.00 0.00 0.00
20190314114620 20 42 0.0 0.0 0.00 0.00 0.00
20190314113623 21 42 0.0 0.0 0.00 0.00 0.00
20190314112625 21 42 0.0 0.0 0.00 0.00 0.00
20190314111629 21 42 0.0 0.0 0.00 0.00 0.00
20190314110630 22 42 0.0 0.0 0.00 0.00 0.00
20190314105633 21 42 0.0 0.0 0.00 0.00 0.00
20190314104635 21 42 0.0 0.0 0.00 0.00 0.00
20190314102639 22 42 0.0 0.0 0.00 0.00 0.00
20190314101642 22 42 0.0 0.0 0.00 0.00 0.00
20190314100645 22 42 0.0 0.0 0.00 0.00 0.00
20190314095646 22 42 0.0 0.0 0.00 0.00 0.00
20190314094649 22 42 0.0 0.0 0.00 0.00 0.00
20190314093651 23 42 0.0 0.0 0.00 0.00 0.00
20190314092653 23 42 0.0 0.0 0.00 0.00 0.00
20190314091656 23 42 0.0 0.0 0.00 0.00 0.00
20190314085700 23 42 0.0 0.0 0.00 0.00 0.00
20190314084702 23 42 0.0 0.0 0.00 0.00 0.00
20190314083705 24 42 0.0 0.0 0.00 0.00 0.00
20190314082707 24 42 0.0 0.0 0.00 0.00 0.00
20190314081710 24 42 0.0 0.0 0.00 0.00 0.00
20190314080712 25 42 0.0 0.0 0.00 0.00 0.00
20190314074716 24 37 0.0 0.0 0.00 0.02 0.00
20190314073718 25 37 0.0 0.0 0.00 0.02 0.00
20190314072721 25 37 0.0 0.0 0.00 0.02 0.00
20190314071724 25 37 0.0 0.0 0.00 0.02 0.00
20190314070725 26 37 0.0 0.0 0.00 0.02 0.00
20190314065727 26 37 0.0 0.0 0.00 0.02 0.00
20190314063732 26 23 0.0 0.0 0.00 0.02 0.00
20190314062734 26 23 0.0 0.0 0.00 0.02 0.00
20190314061733 27 23 0.0 0.0 0.00 0.02 0.00
20190314055734 27 23 0.0 0.0 0.00 0.02 0.00
20190314054735 27 339 0.0 0.0 0.00 0.02 0.00
20190314052739 27 32 0.0 0.0 0.00 0.02 0.00
20190314050743 27 32 0.0 0.0 0.00 0.02 0.00
20190314044746 28 77 0.0 0.0 0.00 0.02 0.00
20190314040755 29 77 0.0 0.0 0.00 0.02 0.00
20190314035758 29 77 0.0 0.0 0.00 0.02 0.00
20190314032804 30 11 0.0 0.0 0.00 0.02 0.00
20190314031805 31 11 0.0 0.0 0.00 0.02 0.00
20190314025811 32 69 4.0 3.0 0.00 0.02 0.00
20190314024814 32 7 3.0 0.0 0.00 0.02 0.00
20190314022817 34 30 3.0 2.0 0.00 0.02 0.00
20190314020820 35 346 2.0 1.0 0.00 0.02 0.00
20190314013826 36 30 3.0 3.0 0.00 0.02 0.00
20190314012829 37 10 3.0 2.0 0.00 0.02 0.00
20190314010832 38 336 4.0 1.0 0.00 0.02 0.00
20190314004834 39 10 0.0 3.0 0.00 0.02 0.00
20190314003836 39 353 2.0 4.0 0.00 0.02 0.00
20190314002838 39 48 2.0 5.0 0.00 0.02 0.00
20190314001840 40 0 2.0 3.0 0.00 0.02 0.00
20190314000842 40 66 7.0 5.0 0.00 0.02 0.00
20190313235845 40 3 2.0 5.0 0.00 0.02 0.00
20190313233849 41 309 6.0 0.0 0.00 0.02 0.00
20190313232852 41 86 7.0 1.0 0.00 0.02 0.00
20190313230856 42 135 4.0 4.0 0.00 0.02 0.00
20190313225858 42 44 3.0 7.0 0.00 0.02 0.00
20190313223903 42 259 2.0 0.0 0.00 0.02 0.00
20190313220905 44 193 3.0 0.0 0.00 0.02 0.00
20190313214910 45 328 1.0 0.0 0.00 0.02 0.00
20190313205921 46 345 0.0 2.0 0.00 0.02 0.00
20190313204923 46 205 1.0 1.0 0.00 0.02 0.00
20190313202928 45 221 2.0 1.0 0.00 0.02 0.00
20190313201929 46 239 1.0 0.0 0.00 0.02 0.00
20190313200931 47 172 0.0 0.0 0.00 0.02 0.00
20190313194937 49 345 2.0 0.0 0.00 0.02 0.00
20190313192940 46 236 2.0 2.0 0.00 0.02 0.00
20190313191942 46 352 3.0 3.0 0.00 0.02 0.00
20190313184948 45 200 5.0 4.0 0.00 0.02 0.00
20190313180000 44 194 3.0 5.0 0.00 0.02 0.00
20190313173006 42 142 4.0 2.0 0.00 0.02 0.00
20190313165016 35 191 1.0 1.0 0.00 0.02 0.00
20190313164016 34 13 0.0 2.0 0.00 0.02 0.00
20190313163018 31 219 0.0 0.0 0.00 0.02 0.00
20190313160025 26 219 0.0 0.0 0.00 0.02 0.00
20190313155028 24 219 0.0 0.0 0.00 0.02 0.00
20190313153032 22 219 0.0 0.0 0.00 0.02 0.00
20190313145041 19 219 0.0 0.0 0.00 0.02 0.00
20190313144042 20 219 0.0 0.0 0.00 0.02 0.00
20190313142047 19 219 0.0 0.0 0.00 0.02 0.00
20190313141049 20 219 0.0 0.0 0.00 0.02 0.00
20190313134056 21 219 0.0 0.0 0.00 0.02 0.00
20190313133058 20 219 0.0 0.0 0.00 0.02 0.00
20190313131101 20 219 0.0 0.0 0.00 0.02 0.00
20190313125106 21 219 0.0 0.0 0.00 0.02 0.00
20190313123110 21 219 0.0 0.0 0.00 0.02 0.00
20190313122114 21 219 0.0 0.0 0.00 0.02 0.00
20190313121115 22 219 0.0 0.0 0.00 0.02 0.00
20190313120117 22 219 0.0 0.0 0.00 0.02 0.00
20190313115120 22 219 0.0 0.0 0.00 0.02 0.00
20190313114122 22 219 0.0 0.0 0.00 0.02 0.00
20190313113125 23 219 0.0 0.0 0.00 0.02 0.00
20190313112129 23 219 0.0 0.0 0.00 0.02 0.00
20190313111129 22 219 0.0 0.0 0.00 0.02 0.00
20190313104136 23 219 0.0 0.0 0.00 0.02 0.00
20190313103139 24 219 0.0 0.0 0.00 0.02 0.00
20190313102141 24 219 0.0 0.0 0.00 0.02 0.00
20190313101143 23 219 0.0 0.0 0.00 0.02 0.00
20190313095148 25 219 0.0 0.0 0.00 0.02 0.00
20190313094151 25 219 0.0 0.0 0.00 0.02 0.00
20190313093153 25 219 0.0 0.0 0.00 0.02 0.00
20190313092155 25 219 0.0 0.0 0.00 0.02 0.00
20190313084200 26 219 0.0 0.0 0.00 0.02 0.00
20190313083203 26 219 0.0 0.0 0.00 0.02 0.00
20190313081207 27 219 0.0 0.0 0.00 0.02 0.00
20190313075211 27 219 0.0 0.0 0.00 0.00 0.02
20190313072218 28 219 0.0 0.0 0.00 0.00 0.02
20190313071220 29 219 0.0 0.0 0.00 0.00 0.02
20190313070222 29 219 0.0 0.0 0.00 0.00 0.02
20190313065224 29 219 0.0 0.0 0.00 0.00 0.02
20190313062230 29 219 0.0 0.0 0.00 0.00 0.02
20190313055237 30 219 0.0 0.0 0.00 0.00 0.02
20190313054238 30 219 0.0 0.0 0.00 0.00 0.02
20190313053240 30 219 0.0 0.0 0.00 0.00 0.02
20190313051244 31 219 0.0 0.0 0.00 0.00 0.02
20190313050246 31 219 0.0 0.0 0.00 0.00 0.02
20190313045249 31 219 0.0 0.0 0.00 0.00 0.02
20190313044250 31 219 0.0 0.0 0.00 0.00 0.02
20190313042254 32 219 0.0 0.0 0.00 0.00 0.02
20190313040258 32 219 0.0 0.0 0.00 0.00 0.02
20190313035300 32 219 0.0 0.0 0.00 0.00 0.02
20190313034303 33 219 0.0 0.0 0.00 0.00 0.02
20190313033304 32 219 0.0 0.0 0.00 0.00 0.02
20190313032307 33 219 0.0 0.0 0.00 0.00 0.02
20190313031309 32 219 0.0 0.0 0.00 0.00 0.02
20190313030311 33 219 0.0 0.0 0.00 0.00 0.02
20190313024315 32 219 0.0 0.0 0.00 0.00 0.02
20190313020321 34 219 0.0 0.0 0.00 0.00 0.02
20190313015323 34 219 0.0 0.0 0.02 0.00 0.02
20190313014325 35 219 0.0 0.0 0.02 0.00 0.02
20190313013326 34 219 0.0 0.0 0.02 0.00 0.02
20190313010330 34 219 0.0 0.0 0.02 0.00 0.02
20190313004335 34 219 0.0 0.0 0.00 0.00 0.01
20190313000342 36 219 0.0 0.0 0.00 0.00 0.00
20190312234346 38 219 3.0 0.0 0.00 0.00 0.00
20190312233349 38 212 0.0 3.0 0.00 0.00 0.00
20190312232351 41 184 2.0 1.0 0.00 0.00 0.00
20190312225358 40 190 4.0 8.0 0.00 0.00 0.00
20190312224359 42 212 0.0 2.0 0.00 0.00 0.00
20190312223401 44 201 3.0 4.0 0.00 0.00 0.00
20190312215408 46 219 3.0 2.0 0.00 0.00 0.00
20190312214410 47 262 1.0 1.0 0.00 0.00 0.00
20190312213412 47 170 4.0 2.0 0.00 0.00 0.00
20190312212605 47 152 7.0 7.0 0.00 0.00 0.00
20190312211417 48 217 2.0 1.0 0.00 0.00 0.00
20190312210419 49 174 4.0 8.0 0.00 0.00 0.00
20190312203426 49 242 5.0 4.0 0.00 0.00 0.00
20190312202428 48 186 5.0 6.0 0.00 0.00 0.00
20190312201430 49 153 5.0 5.0 0.00 0.00 0.00
20190312192439 52 170 2.0 5.0 0.00 0.00 0.00
20190312185443 53 188 4.0 5.0 0.00 0.00 0.00
20190312183447 52 259 4.0 3.0 0.00 0.00 0.00
20190312180453 50 187 5.0 5.0 0.00 0.00 0.00
20190312175455 50 217 3.0 0.0 0.00 0.00 0.00
20190312173459 47 190 3.0 4.0 0.00 0.00 0.00
20190312171503 46 48 0.0 0.0 0.00 0.00 0.00
20190312170505 43 48 0.0 0.0 0.00 0.00 0.00
20190312163512 35 200 0.0 0.0 0.00 0.00 0.00
20190312161516 31 200 0.0 0.0 0.00 0.00 0.00
20190312150531 22 14 0.0 0.0 0.00 0.00 0.00
20190312145533 23 14 0.0 0.0 0.00 0.00 0.00
20190312143538 22 14 0.0 0.0 0.00 0.00 0.00
20190312142540 22 14 0.0 0.0 0.00 0.00 0.00
20190312141542 22 14 0.0 0.0 0.00 0.00 0.00
20190312134548 22 14 0.0 0.0 0.00 0.00 0.00
20190312133550 22 14 0.0 0.0 0.00 0.00 0.00
20190312132552 23 14 0.0 0.0 0.00 0.00 0.00
20190312130557 23 14 0.0 0.0 0.00 0.00 0.00
20190312125559 23 14 0.0 0.0 0.00 0.00 0.00
20190312123602 24 14 0.0 0.0 0.00 0.00 0.00
20190312122604 23 14 0.0 0.0 0.00 0.00 0.00
20190312115612 24 14 0.0 0.0 0.00 0.00 0.00
20190312114613 25 14 0.0 0.0 0.00 0.00 0.00
20190312113616 25 14 0.0 0.0 0.00 0.00 0.00
20190312112618 24 14 0.0 0.0 0.00 0.00 0.00
20190312111620 25 14 0.0 0.0 0.00 0.00 0.00
20190312110622 25 14 0.0 0.0 0.00 0.00 0.00
20190312105625 24 14 0.0 0.0 0.00 0.00 0.00
20190312104627 24 14 0.0 0.0 0.00 0.00 0.00
20190312103627 25 14 0.0 0.0 0.00 0.00 0.00
20190312101629 25 14 0.0 0.0 0.00 0.00 0.00
20190312100631 25 14 0.0 0.0 0.00 0.00 0.00
20190312095634 25 14 0.0 0.0 0.00 0.00 0.00
20190312092640 25 14 0.0 0.0 0.00 0.00 0.00
20190312091642 25 14 0.0 0.0 0.00 0.00 0.00
20190312090643 26 14 0.0 0.0 0.00 0.00 0.00
20190312083645 26 14 0.0 0.0 0.00 0.00 0.00
20190312082647 27 14 0.0 0.0 0.00 0.00 0.00
20190312074656 27 14 0.0 0.0 0.00 0.05 0.00
20190312073659 27 14 0.0 0.0 0.00 0.05 0.00
20190312072701 27 14 0.0 0.0 0.00 0.05 0.00
20190312071703 28 14 0.0 0.0 0.00 0.05 0.00
20190312065707 28 14 0.0 0.0 0.00 0.05 0.00
20190312064710 29 14 0.0 0.0 0.00 0.05 0.00
20190312063712 28 14 0.0 0.0 0.00 0.05 0.00
20190312062714 29 14 0.0 0.0 0.00 0.05 0.00
20190312055721 29 14 0.0 0.0 0.00 0.05 0.00
20190312054723 29 14 0.0 0.0 0.00 0.05 0.00
20190312050733 29 354 0.0 0.0 0.00 0.05 0.00
20190312045735 30 354 0.0 0.0 0.00 0.05 0.00
20190312043740 30 354 0.0 0.0 0.00 0.05 0.00
20190312041742 30 45 0.0 0.0 0.00 0.05 0.00
20190312035746 31 45 0.0 0.0 0.00 0.05 0.00
20190312034749 31 62 0.0 0.0 0.00 0.05 0.00
20190312033751 31 62 0.0 0.0 0.00 0.05 0.00
20190312010822 38 25 0.0 0.0 0.00 0.05 0.00
20190312005824 38 25 0.0 0.0 0.00 0.05 0.00
20190311235838 43 34 0.0 0.0 0.00 0.05 0.00
20190311234840 43 34 0.0 0.0 0.00 0.05 0.00
20190311233841 44 34 0.0 0.0 0.00 0.05 0.00
20190311232844 44 34 0.0 0.0 0.00 0.05 0.00
20190311231846 44 62 1.0 0.0 0.00 0.05 0.00
20190311224853 45 159 5.0 7.0 0.00 0.05 0.00
20190311223855 46 204 0.0 4.0 0.00 0.05 0.00
20190311220902 47 191 1.0 1.0 0.00 0.05 0.00
20190311213906 47 180 1.0 2.0 0.00 0.05 0.00
20190311212909 48 207 2.0 4.0 0.00 0.05 0.00
20190311211911 50 63 0.0 5.0 0.00 0.05 0.00
20190311210913 48 15 2.0 1.0 0.00 0.05 0.00
20190311205914 47 155 5.0 5.0 0.00 0.05 0.00
20190311204917 48 158 3.0 1.0 0.00 0.05 0.00
20190311203919 47 225 4.0 3.0 0.00 0.05 0.00
20190311201923 49 139 1.0 4.0 0.00 0.05 0.00
20190311200925 49 245 4.0 1.0 0.00 0.05 0.00
20190311193932 52 197 4.0 4.0 0.00 0.05 0.00
20190311192934 50 226 3.0 3.0 0.00 0.05 0.00
20190311191933 53 217 3.0 3.0 0.00 0.05 0.00
20190311190934 54 27 1.0 1.0 0.00 0.05 0.00
20190311184939 54 326 0.0 0.0 0.00 0.05 0.00
20190311183941 49 195 3.0 3.0 0.00 0.05 0.00
20190311182943 51 186 2.0 1.0 0.00 0.05 0.00
20190311181946 51 139 0.0 0.0 0.00 0.05 0.00
20190311173953 48 174 0.0 2.0 0.00 0.05 0.00
20190311170001 39 183 0.0 0.0 0.00 0.05 0.00
20190311161011 29 18 0.0 0.0 0.00 0.05 0.00
20190311155014 25 18 0.0 0.0 0.00 0.05 0.00
20190311154015 23 18 0.0 0.0 0.00 0.05 0.00
20190311151019 21 18 0.0 0.0 0.00 0.05 0.00
20190311150020 21 18 0.0 0.0 0.00 0.05 0.00
20190311144025 20 18 0.0 0.0 0.00 0.05 0.00
20190311140034 20 82 0.0 0.0 0.00 0.05 0.00
20190311135037 21 82 0.0 0.0 0.00 0.05 0.00
20190311133041 21 352 0.0 0.0 0.00 0.05 0.00
20190311125048 22 48 0.0 0.0 0.00 0.05 0.00
20190311124050 22 48 0.0 0.0 0.00 0.05 0.00
20190311123053 21 48 0.0 0.0 0.00 0.05 0.00
20190311122055 21 48 0.0 0.0 0.00 0.05 0.00
20190311115101 22 48 0.0 0.0 0.00 0.05 0.00
20190311112107 23 48 0.0 0.0 0.00 0.05 0.00
20190311111109 23 48 0.0 0.0 0.00 0.05 0.00
20190311105112 23 48 0.0 0.0 0.00 0.05 0.00
20190311102119 24 48 0.0 0.0 0.00 0.05 0.00
20190311101121 24 48 0.0 0.0 0.00 0.05 0.00
20190311100124 25 48 0.0 0.0 0.00 0.05 0.00
20190311095126 25 48 0.0 0.0 0.00 0.05 0.00
20190311094128 24 48 0.0 0.0 0.00 0.05 0.00
20190311093131 24 48 0.0 0.0 0.00 0.05 0.00
20190311091254 25 48 0.0 0.0 0.00 0.05 0.00
20190311091135 25 48 0.0 0.0 0.00 0.05 0.00
20190311090137 25 48 0.0 0.0 0.00 0.05 0.00
20190311085140 25 34 0.0 0.0 0.00 0.05 0.00
20190311084142 25 34 0.0 0.0 0.00 0.05 0.00
20190311081147 26 129 0.0 1.0 0.00 0.05 0.00
20190311080149 27 314 0.0 0.0 0.00 0.05 0.00
20190311075151 26 27 0.0 0.0 0.00 0.03 0.05
20190311074403 26 349 0.0 0.0 0.00 0.03 0.05
20190311073156 27 113 0.0 0.0 0.00 0.03 0.05
20190311070203 27 169 2.0 3.0 0.00 0.03 0.05
20190311064208 28 6 0.0 0.0 0.00 0.03 0.05
20190311063210 28 52 0.0 0.0 0.00 0.03 0.05
20190311062213 28 52 3.0 0.0 0.00 0.03 0.05
20190311055219 28 24 2.0 2.0 0.00 0.03 0.05
20190311050225 29 347 0.0 0.0 0.00 0.03 0.05
20190311045227 30 347 0.0 0.0 0.00 0.03 0.05
20190311042233 31 347 0.0 0.0 0.00 0.03 0.05
20190311040238 30 347 0.0 0.0 0.00 0.03 0.05
20190311034241 31 347 0.0 0.0 0.00 0.03 0.05
20190311033243 31 347 0.0 0.0 0.00 0.03 0.05
20190311032247 31 347 0.0 0.0 0.00 0.03 0.05
20190311030249 32 347 0.0 0.0 0.00 0.03 0.05
20190311025251 32 347 0.0 0.0 0.01 0.03 0.05
20190311024251 32 347 0.0 0.0 0.01 0.03 0.05
20190311023253 33 347 0.0 0.0 0.01 0.03 0.05
20190311015302 33 347 0.0 0.0 0.01 0.03 0.05
20190311014304 33 347 0.0 0.0 0.01 0.03 0.05
20190311013306 34 347 0.0 0.0 0.01 0.03 0.05
20190311005314 34 347 0.0 0.0 0.00 0.03 0.04
20190311004316 35 347 0.0 0.0 0.00 0.03 0.04
20190311003318 34 347 0.0 0.0 0.00 0.03 0.04
20190311002321 34 347 0.0 0.0 0.00 0.03 0.04
20190311001323 35 347 0.0 0.0 0.00 0.03 0.03
20190310232334 36 48 0.0 0.0 0.01 0.03 0.03
20190310231336 36 48 0.0 0.0 0.01 0.03 0.03
20190310223344 38 34 3.0 4.0 0.00 0.03 0.02
20190310215353 42 217 1.0 1.0 0.00 0.03 0.02
20190310213358 42 229 3.0 1.0 0.00 0.03 0.02
20190310212400 42 93 1.0 2.0 0.00 0.03 0.02
20190310204410 41 169 0.0 0.0 0.00 0.03 0.02
20190310201416 41 105 0.0 0.0 0.00 0.03 0.02
20190310200418 42 291 0.0 0.0 0.00 0.03 0.02
20190310195421 44 83 1.0 4.0 0.00 0.03 0.02
20190310194423 44 343 1.0 2.0 0.00 0.03 0.02
20190310184435 49 338 0.0 0.0 0.00 0.03 0.02
20190310182440 46 312 2.0 1.0 0.00 0.03 0.02
20190310175448 44 87 0.0 0.0 0.00 0.03 0.02
20190310174449 46 87 0.0 0.0 0.00 0.03 0.02
20190310173451 46 87 0.0 0.0 0.00 0.03 0.02
20190310163505 33 143 0.0 0.0 0.00 0.03 0.02
20190310161509 31 32 0.0 0.0 0.00 0.03 0.02
20190310160510 29 32 0.0 0.0 0.00 0.03 0.02
20190310155512 28 32 0.0 0.0 0.00 0.03 0.02
20190310154514 26 32 0.0 0.0 0.00 0.03 0.02
20190310153517 23 32 0.0 0.0 0.00 0.03 0.02
20190310145522 25 32 0.0 0.0 0.00 0.03 0.02
20190310144523 25 32 0.0 0.0 0.00 0.03 0.02
20190310142528 24 32 0.0 0.0 0.00 0.03 0.02
20190310141529 24 32 0.0 0.0 0.00 0.03 0.02
20190310140531 25 32 0.0 0.0 0.00 0.03 0.02
20190310134534 25 32 0.0 0.0 0.00 0.03 0.02
20190310133537 25 32 0.0 0.0 0.00 0.03 0.02
20190310132539 26 32 0.0 0.0 0.00 0.03 0.02
20190310131541 25 32 0.0 0.0 0.00 0.03 0.02
20190310125545 25 32 0.0 0.0 0.00 0.03 0.02
20190310124546 25 32 0.0 0.0 0.00 0.03 0.02
20190310122550 26 32 0.0 0.0 0.00 0.03 0.02
20190310120553 26 32 0.0 0.0 0.00 0.03 0.02
20190310115555 26 32 0.0 0.0 0.01 0.03 0.02
20190310112602 27 32 0.0 0.0 0.01 0.03 0.02
20190310111603 28 32 0.0 0.0 0.01 0.03 0.02
20190310110606 28 32 0.0 0.0 0.01 0.03 0.02
20190310103612 26 32 0.0 0.0 0.00 0.03 0.02
20190310102614 28 32 0.0 0.0 0.00 0.03 0.02